createdAt,value
2018-05-02T00:00:22.525Z,101276.00
2018-05-02T00:02:50.790Z,101268.28
2018-05-02T00:05:19.158Z,101255.38
2018-05-02T00:07:48.078Z,101257.41
2018-05-02T00:10:16.660Z,101244.22
2018-05-02T00:12:45.703Z,101245.75
2018-05-02T00:15:14.120Z,101248.27
2018-05-02T00:17:42.389Z,101249.53
2018-05-02T00:20:10.642Z,101249.02
2018-05-02T00:22:38.943Z,101241.48
2018-05-02T00:25:07.228Z,101238.66
2018-05-02T00:27:35.511Z,101241.45
2018-05-02T00:30:03.793Z,101240.31
2018-05-02T00:32:32.576Z,101235.72
2018-05-02T00:35:01.177Z,101237.69
2018-05-02T00:37:30.051Z,101240.03
2018-05-02T00:39:58.563Z,101242.41
2018-05-02T00:42:27.177Z,101235.09
2018-05-02T00:44:55.958Z,101223.17
2018-05-02T00:47:25.662Z,101228.28
2018-05-02T00:49:56.146Z,101226.23
2018-05-02T00:52:24.827Z,101234.45
2018-05-02T00:54:54.465Z,101230.95
2018-05-02T00:57:22.807Z,101227.94
2018-05-02T00:59:51.894Z,101229.84
2018-05-02T01:02:20.168Z,101231.62
2018-05-02T01:04:48.506Z,101232.50
2018-05-02T01:07:16.771Z,101226.52
2018-05-02T01:09:45.778Z,101218.02
2018-05-02T01:12:14.888Z,101223.76
2018-05-02T01:14:44.028Z,101219.64
2018-05-02T01:17:13.211Z,101221.03
2018-05-02T01:19:42.547Z,101215.16
2018-05-02T01:22:11.713Z,101227.77
2018-05-02T01:24:40.006Z,101231.94
2018-05-02T01:27:08.286Z,101230.00
2018-05-02T01:29:37.443Z,101230.66
2018-05-02T01:32:06.833Z,101235.75
2018-05-02T01:34:35.879Z,101233.71
2018-05-02T01:37:04.259Z,101236.75
2018-05-02T01:39:32.643Z,101237.42
2018-05-02T01:42:00.906Z,101230.56
2018-05-02T01:44:29.179Z,101235.30
2018-05-02T01:46:57.447Z,101235.82
2018-05-02T01:49:25.930Z,101235.59
2018-05-02T01:51:54.212Z,101240.58
2018-05-02T01:54:23.400Z,101238.20
2018-05-02T01:56:51.828Z,101234.64
2018-05-02T01:59:20.094Z,101242.70
2018-05-02T02:01:48.373Z,101244.40
2018-05-02T02:04:17.274Z,101234.42
2018-05-02T02:06:46.830Z,101244.50
2018-05-02T02:09:15.868Z,101245.16
2018-05-02T02:11:44.369Z,101248.33
2018-05-02T02:14:12.678Z,101250.41
2018-05-02T02:16:41.717Z,101259.80
2018-05-02T02:19:11.250Z,101260.50
2018-05-02T02:21:39.610Z,101261.51
2018-05-02T02:24:08.177Z,101255.77
2018-05-02T02:26:36.443Z,101258.89
2018-05-02T02:29:04.735Z,101255.56
2018-05-02T02:31:33.122Z,101260.39
2018-05-02T02:34:02.020Z,101256.70
2018-05-02T02:36:30.296Z,101259.73
2018-05-02T02:38:58.579Z,101260.53
2018-05-02T02:41:26.867Z,101261.03
2018-05-02T02:43:55.136Z,101264.64
2018-05-02T02:46:23.407Z,101263.16
2018-05-02T02:48:52.191Z,101263.66
2018-05-02T02:51:20.631Z,101267.87
2018-05-02T02:53:49.665Z,101269.00
2018-05-02T02:56:17.967Z,101267.42
2018-05-02T02:58:46.694Z,101275.73
2018-05-02T03:01:15.718Z,101268.95
2018-05-02T03:03:44.055Z,101271.67
2018-05-02T03:06:12.611Z,101275.88
2018-05-02T03:08:42.239Z,101282.73
2018-05-02T03:11:10.512Z,101285.70
2018-05-02T03:13:39.523Z,101286.81
2018-05-02T03:16:08.552Z,101284.94
2018-05-02T03:18:36.912Z,101273.70
2018-05-02T03:21:06.069Z,101277.34
2018-05-02T03:23:34.375Z,101274.02
2018-05-02T03:26:03.111Z,101279.20
2018-05-02T03:28:31.415Z,101280.58
2018-05-02T03:30:59.710Z,101280.73
2018-05-02T03:33:27.984Z,101281.16
2018-05-02T03:35:56.278Z,101276.75
2018-05-02T03:38:25.320Z,101278.43
2018-05-02T03:40:53.590Z,101281.41
2018-05-02T03:43:21.883Z,101281.69
2018-05-02T03:45:50.363Z,101279.11
2018-05-02T03:48:18.642Z,101278.00
2018-05-02T03:50:47.066Z,101277.52
2018-05-02T03:53:15.627Z,101280.44
2018-05-02T03:55:44.191Z,101284.64
2018-05-02T03:58:14.110Z,101286.22
2018-05-02T04:01:00.419Z,101291.39
2018-05-02T04:07:08.954Z,101288.94
2018-05-02T04:09:37.972Z,101294.98
2018-05-02T04:12:06.253Z,101288.52
2018-05-02T04:14:35.011Z,101290.13
2018-05-02T04:17:03.383Z,101288.79
2018-05-02T04:19:31.649Z,101297.66
2018-05-02T04:22:00.246Z,101297.09
2018-05-02T04:24:29.180Z,101302.41
2018-05-02T04:26:57.963Z,101307.66
2018-05-02T04:29:26.261Z,101299.83
2018-05-02T04:31:54.590Z,101302.13
2018-05-02T04:34:22.855Z,101303.07
2018-05-02T04:36:52.044Z,101297.78
2018-05-02T04:39:21.157Z,101299.02
2018-05-02T04:41:49.430Z,101304.63
2018-05-02T04:44:17.709Z,101308.18
2018-05-02T04:46:46.334Z,101303.64
2018-05-02T04:49:15.490Z,101313.73
2018-05-02T04:51:43.778Z,101323.45
2018-05-02T04:54:12.190Z,101321.40
2018-05-02T04:56:40.868Z,101321.05
2018-05-02T04:59:09.700Z,101330.94
2018-05-02T05:01:38.829Z,101324.05
2018-05-02T05:04:07.117Z,101332.67
2018-05-02T05:06:36.799Z,101334.99
2018-05-02T05:09:05.031Z,101328.05
2018-05-02T05:11:33.775Z,101336.66
2018-05-02T05:14:02.066Z,101333.32
2018-05-02T05:16:31.258Z,101339.36
2018-05-02T05:18:59.649Z,101339.23
2018-05-02T05:21:27.919Z,101337.52
2018-05-02T05:23:56.198Z,101342.51
2018-05-02T05:26:24.479Z,101342.55
2018-05-02T05:28:53.675Z,101344.95
2018-05-02T05:31:22.008Z,101343.39
2018-05-02T05:33:51.054Z,101344.61
2018-05-02T05:36:20.402Z,101339.85
2018-05-02T05:38:48.935Z,101337.08
2018-05-02T05:41:17.205Z,101344.05
2018-05-02T05:43:46.231Z,101341.75
2018-05-02T05:46:14.690Z,101339.41
2018-05-02T05:48:43.731Z,101339.03
2018-05-02T05:51:13.107Z,101333.52
2018-05-02T05:53:42.197Z,101333.90
2018-05-02T05:56:10.455Z,101331.00
2018-05-02T05:58:39.580Z,101337.36
2018-05-02T06:01:08.713Z,101337.98
2018-05-02T06:03:37.041Z,101338.63
2018-05-02T06:06:05.306Z,101343.97
2018-05-02T06:08:34.482Z,101344.72
2018-05-02T06:11:03.613Z,101348.96
2018-05-02T06:13:32.340Z,101344.86
2018-05-02T06:16:01.244Z,101350.09
2018-05-02T06:18:30.337Z,101349.37
2018-05-02T06:20:59.972Z,101344.83
2018-05-02T06:23:28.991Z,101337.82
2018-05-02T06:25:57.647Z,101341.50
2018-05-02T06:28:26.713Z,101342.81
2018-05-02T06:30:54.958Z,101345.11
2018-05-02T06:33:23.242Z,101340.16
2018-05-02T06:35:52.014Z,101337.08
2018-05-02T06:38:20.769Z,101338.20
2018-05-02T06:40:49.812Z,101331.11
2018-05-02T06:43:18.123Z,101333.23
2018-05-02T06:45:46.438Z,101329.66
2018-05-02T06:48:14.718Z,101331.70
2018-05-02T06:50:44.411Z,101327.48
2018-05-02T06:53:14.175Z,101329.95
2018-05-02T06:55:42.542Z,101330.81
2018-05-02T06:58:11.725Z,101325.03
2018-05-02T07:00:40.867Z,101328.63
2018-05-02T07:03:09.220Z,101327.81
2018-05-02T07:05:37.711Z,101323.08
2018-05-02T07:08:06.804Z,101325.77
2018-05-02T07:10:35.079Z,101326.61
2018-05-02T07:13:03.379Z,101327.50
2018-05-02T07:15:31.630Z,101329.30
2018-05-02T07:17:59.924Z,101333.98
2018-05-02T07:20:28.233Z,101335.69
2018-05-02T07:22:56.935Z,101332.14
2018-05-02T07:25:26.065Z,101332.89
2018-05-02T07:27:54.403Z,101329.61
2018-05-02T07:30:23.633Z,101328.92
2018-05-02T07:32:52.515Z,101327.80
2018-05-02T07:35:21.535Z,101329.77
2018-05-02T07:37:49.802Z,101331.13
2018-05-02T07:40:18.128Z,101323.83
2018-05-02T07:42:46.391Z,101326.55
2018-05-02T07:45:15.567Z,101334.08
2018-05-02T07:47:45.598Z,101327.94
2018-05-02T07:50:14.401Z,101331.20
2018-05-02T07:52:42.718Z,101330.34
2018-05-02T07:55:11.766Z,101328.87
2018-05-02T07:57:40.130Z,101321.45
2018-05-02T08:00:08.543Z,101321.00
2018-05-02T08:02:37.302Z,101313.75
2018-05-02T08:05:06.274Z,101324.65
2018-05-02T08:07:34.623Z,101327.38
2018-05-02T08:10:03.707Z,101319.23
2018-05-02T08:12:31.999Z,101315.46
2018-05-02T08:15:01.039Z,101318.80
2018-05-02T08:17:29.967Z,101316.75
2018-05-02T08:19:58.529Z,101317.30
2018-05-02T08:22:27.218Z,101317.11
2018-05-02T08:24:56.351Z,101315.06
2018-05-02T08:27:24.618Z,101316.33
2018-05-02T08:29:53.262Z,101311.00
2018-05-02T08:32:21.538Z,101318.67
2018-05-02T08:34:50.150Z,101308.71
2018-05-02T08:37:18.450Z,101304.26
2018-05-02T08:39:47.617Z,101309.23
2018-05-02T08:42:16.714Z,101310.15
2018-05-02T08:44:45.894Z,101311.98
2018-05-02T08:47:14.451Z,101303.59
2018-05-02T08:49:43.595Z,101297.81
2018-05-02T08:52:13.404Z,101299.51
2018-05-02T08:54:41.678Z,101295.40
2018-05-02T08:57:10.266Z,101302.56
2018-05-02T08:59:39.758Z,101300.59
2018-05-02T09:02:08.030Z,101294.75
2018-05-02T09:04:36.417Z,101298.06
2018-05-02T09:07:04.700Z,101297.30
2018-05-02T09:09:33.027Z,101291.87
2018-05-02T09:12:02.082Z,101299.81
2018-05-02T09:14:31.191Z,101297.34
2018-05-02T09:16:59.776Z,101296.58
2018-05-02T09:19:28.142Z,101291.55
2018-05-02T09:21:56.431Z,101297.08
2018-05-02T09:24:25.041Z,101288.34
2018-05-02T09:26:55.270Z,101272.47
2018-05-02T09:29:23.555Z,101278.31
2018-05-02T09:31:53.303Z,101269.98
2018-05-02T09:34:22.098Z,101264.56
2018-05-02T09:36:51.091Z,101259.56
2018-05-02T09:39:19.702Z,101255.39
2018-05-02T09:41:48.802Z,101267.52
2018-05-02T09:44:17.462Z,101261.25
2018-05-02T09:46:45.751Z,101254.98
2018-05-02T09:49:14.130Z,101249.52
2018-05-02T09:51:42.435Z,101247.45
2018-05-02T09:54:11.538Z,101237.00
2018-05-02T09:56:40.350Z,101245.77
2018-05-02T09:59:09.505Z,101238.23
2018-05-02T10:01:37.886Z,101232.73
2018-05-02T10:04:07.111Z,101223.55
2018-05-02T10:06:36.186Z,101226.45
2018-05-02T10:09:04.478Z,101226.47
2018-05-02T10:11:33.646Z,101228.58
2018-05-02T10:14:01.939Z,101225.58
2018-05-02T10:16:30.647Z,101220.94
2018-05-02T10:18:59.700Z,101231.81
2018-05-02T10:21:27.975Z,101221.75
2018-05-02T10:23:56.241Z,101212.06
2018-05-02T10:26:25.163Z,101203.23
2018-05-02T10:28:54.259Z,101204.03
2018-05-02T10:31:22.796Z,101198.20
2018-05-02T10:33:51.938Z,101203.70
2018-05-02T10:36:20.952Z,101201.57
2018-05-02T10:38:49.975Z,101212.04
2018-05-02T10:41:19.834Z,101210.63
2018-05-02T10:43:48.513Z,101205.66
2018-05-02T10:46:16.802Z,101203.48
2018-05-02T10:48:45.802Z,101205.05
2018-05-02T10:51:14.730Z,101202.86
2018-05-02T10:53:44.543Z,101204.41
2018-05-02T10:56:13.700Z,101204.74
2018-05-02T10:58:42.734Z,101185.47
2018-05-02T11:01:11.772Z,101199.66
2018-05-02T11:03:40.592Z,101193.10
2018-05-02T11:06:09.098Z,101190.39
2018-05-02T11:08:38.134Z,101169.47
2018-05-02T11:11:06.530Z,101188.75
2018-05-02T11:13:35.519Z,101184.94
2018-05-02T11:16:03.788Z,101176.55
2018-05-02T11:18:32.210Z,101170.27
2018-05-02T11:21:01.684Z,101157.55
2018-05-02T11:23:30.643Z,101150.20
2018-05-02T11:25:59.923Z,101147.22
2018-05-02T11:28:28.279Z,101154.23
2018-05-02T11:30:57.668Z,101156.46
2018-05-02T11:33:26.159Z,101156.04
2018-05-02T11:35:56.123Z,101146.59
2018-05-02T11:38:26.040Z,101148.68
2018-05-02T11:40:55.093Z,101147.08
2018-05-02T11:43:23.388Z,101150.89
2018-05-02T11:45:51.694Z,101150.44
2018-05-02T11:48:20.730Z,101154.18
2018-05-02T11:50:49.002Z,101147.23
2018-05-02T11:53:17.310Z,101151.34
2018-05-02T11:55:45.659Z,101140.82
2018-05-02T11:58:14.090Z,101141.54
2018-05-02T12:00:43.393Z,101138.14
2018-05-02T12:03:12.595Z,101131.80
2018-05-02T12:05:41.752Z,101133.64
2018-05-02T12:08:10.746Z,101128.74
2018-05-02T12:10:39.558Z,101137.64
2018-05-02T12:13:08.470Z,101126.47
2018-05-02T12:15:36.752Z,101126.66
2018-05-02T12:18:05.914Z,101124.08
2018-05-02T12:20:34.434Z,101124.05
2018-05-02T12:23:05.438Z,101114.78
2018-05-02T12:25:33.827Z,101114.20
2018-05-02T12:28:02.854Z,101108.20
2018-05-02T12:30:32.509Z,101100.63
2018-05-02T12:33:00.795Z,101106.25
2018-05-02T12:35:29.827Z,101103.86
2018-05-02T12:37:58.270Z,101104.91
2018-05-02T12:40:26.479Z,101087.16
2018-05-02T12:42:54.818Z,101081.05
2018-05-02T12:45:23.730Z,101081.32
2018-05-02T12:47:51.998Z,101077.00
2018-05-02T12:50:20.302Z,101072.59
2018-05-02T12:52:48.766Z,101070.34
2018-05-02T12:55:17.471Z,101068.19
2018-05-02T12:57:46.101Z,101076.44
2018-05-02T13:00:14.499Z,101063.73
2018-05-02T13:02:42.785Z,101063.73
2018-05-02T13:05:11.499Z,101042.64
2018-05-02T13:07:39.963Z,101051.50
2018-05-02T13:10:09.826Z,101031.52
2018-05-02T13:12:39.915Z,101034.52
2018-05-02T13:15:08.726Z,101028.28
2018-05-02T13:17:37.051Z,101025.09
2018-05-02T13:20:06.286Z,101021.55
2018-05-02T13:22:34.616Z,101025.39
2018-05-02T13:25:02.895Z,101014.55
2018-05-02T13:27:31.211Z,101022.01
2018-05-02T13:30:01.103Z,101008.57
2018-05-02T13:32:29.382Z,101009.28
2018-05-02T13:34:57.963Z,101002.72
2018-05-02T13:37:26.619Z,101011.27
2018-05-02T13:39:55.671Z,100990.98
2018-05-02T13:42:24.354Z,101000.76
2018-05-02T13:44:54.012Z,100999.08
2018-05-02T13:47:23.122Z,100986.36
2018-05-02T13:49:52.507Z,100988.52
2018-05-02T13:52:22.999Z,100981.88
2018-05-02T13:54:51.287Z,100978.75
2018-05-02T13:57:20.365Z,100976.55
2018-05-02T13:59:48.735Z,100982.30
2018-05-02T14:02:17.031Z,100978.54
2018-05-02T14:04:45.335Z,100967.55
2018-05-02T14:07:15.163Z,100954.16
2018-05-02T14:09:44.214Z,100951.94
2018-05-02T14:12:13.108Z,100951.91
2018-05-02T14:14:41.404Z,100961.42
2018-05-02T14:17:09.690Z,100945.27
2018-05-02T14:19:38.253Z,100946.06
2018-05-02T14:22:07.174Z,100942.92
2018-05-02T14:24:36.221Z,100942.14
2018-05-02T14:27:04.512Z,100946.83
2018-05-02T14:29:33.313Z,100928.03
2018-05-02T14:32:02.457Z,100925.56
2018-05-02T14:34:30.747Z,100933.62
2018-05-02T14:36:59.037Z,100921.47
2018-05-02T14:39:28.456Z,100930.30
2018-05-02T14:41:56.726Z,100925.28
2018-05-02T14:44:25.029Z,100910.08
2018-05-02T14:46:54.818Z,100919.56
2018-05-02T14:49:23.313Z,100914.57
2018-05-02T14:51:51.679Z,100915.22
2018-05-02T14:54:20.057Z,100919.50
2018-05-02T14:56:48.334Z,100918.87
2018-05-02T14:59:16.620Z,100917.89
2018-05-02T15:01:44.911Z,100910.45
2018-05-02T15:04:13.198Z,100917.90
2018-05-02T15:06:41.552Z,100911.18
2018-05-02T15:09:09.936Z,100919.91
2018-05-02T15:11:38.243Z,100916.06
2018-05-02T15:14:06.534Z,100930.85
2018-05-02T15:16:36.168Z,100921.11
2018-05-02T15:19:04.459Z,100910.72
2018-05-02T15:21:33.677Z,100909.75
2018-05-02T15:24:02.772Z,100905.19
2018-05-02T15:26:31.763Z,100898.38
2018-05-02T15:29:00.413Z,100897.84
2018-05-02T15:31:30.163Z,100899.13
2018-05-02T15:33:59.253Z,100895.98
2018-05-02T15:36:27.564Z,100889.62
2018-05-02T15:38:56.623Z,100894.73
2018-05-02T15:41:25.429Z,100891.53
2018-05-02T15:43:55.371Z,100889.17
2018-05-02T15:46:24.326Z,100896.08
2018-05-02T15:48:53.290Z,100901.20
2018-05-02T15:51:21.573Z,100896.50
2018-05-02T15:53:50.819Z,100900.53
2018-05-02T15:56:20.399Z,100895.23
2018-05-02T15:58:49.530Z,100888.47
2018-05-02T16:01:18.438Z,100888.61
2018-05-02T16:03:47.449Z,100894.91
2018-05-02T16:06:17.219Z,100890.70
2018-05-02T16:08:46.212Z,100883.47
2018-05-02T16:11:14.831Z,100884.56
2018-05-02T16:13:43.446Z,100890.50
2018-05-02T16:16:13.710Z,100884.92
2018-05-02T16:18:42.436Z,100890.01
2018-05-02T16:21:11.471Z,100892.15
2018-05-02T16:23:40.811Z,100890.61
2018-05-02T16:26:09.463Z,100888.58
2018-05-02T16:28:39.063Z,100889.47
2018-05-02T16:31:07.425Z,100880.28
2018-05-02T16:33:37.201Z,100887.32
2018-05-02T16:36:05.791Z,100886.73
2018-05-02T16:38:34.460Z,100878.27
2018-05-02T16:41:03.449Z,100875.66
2018-05-02T16:43:31.799Z,100888.48
2018-05-02T16:46:00.636Z,100892.27
2018-05-02T16:48:28.923Z,100887.63
2018-05-02T16:50:58.728Z,100888.70
2018-05-02T16:53:27.020Z,100876.55
2018-05-02T16:55:56.176Z,100888.88
2018-05-02T16:58:24.466Z,100888.11
2018-05-02T17:00:53.008Z,100876.89
2018-05-02T17:03:21.316Z,100880.69
2018-05-02T17:05:50.084Z,100875.70
2018-05-02T17:08:18.415Z,100879.81
2018-05-02T17:10:46.704Z,100879.20
2018-05-02T17:13:15.675Z,100879.00
2018-05-02T17:15:44.866Z,100887.24
2018-05-02T17:18:13.235Z,100888.58
2018-05-02T17:20:41.622Z,100887.35
2018-05-02T17:23:09.999Z,100883.95
2018-05-02T17:25:38.321Z,100898.73
2018-05-02T17:28:07.375Z,100900.80
2018-05-02T17:30:36.466Z,100894.13
2018-05-02T17:33:04.828Z,100903.59
2018-05-02T17:35:33.743Z,100908.56
2018-05-02T17:38:02.029Z,100908.18
2018-05-02T17:40:30.294Z,100903.45
2018-05-02T17:43:00.329Z,100899.62
2018-05-02T17:45:28.948Z,100911.69
2018-05-02T17:47:58.955Z,100904.97
2018-05-02T17:50:27.939Z,100907.59
2018-05-02T17:52:56.947Z,100919.23
2018-05-02T17:55:25.747Z,100911.81
2018-05-02T17:57:55.403Z,100916.81
2018-05-02T18:00:24.870Z,100920.40
2018-05-02T18:02:53.943Z,100923.12
2018-05-02T18:05:22.238Z,100919.51
2018-05-02T18:07:51.364Z,100926.59
2018-05-02T18:10:20.192Z,100921.89
2018-05-02T18:12:49.208Z,100921.42
2018-05-02T18:15:19.029Z,100929.66
2018-05-02T18:17:48.219Z,100931.80
2018-05-02T18:20:17.377Z,100933.44
2018-05-02T18:22:45.781Z,100932.27
2018-05-02T18:25:15.658Z,100932.95
2018-05-02T18:27:44.611Z,100944.42
2018-05-02T18:30:13.001Z,100935.34
2018-05-02T18:32:42.907Z,100931.26
2018-05-02T18:35:11.958Z,100931.64
2018-05-02T18:37:41.579Z,100936.48
2018-05-02T18:40:11.901Z,100940.71
2018-05-02T18:42:40.259Z,100946.25
2018-05-02T18:45:08.576Z,100946.67
2018-05-02T18:47:36.870Z,100947.53
2018-05-02T18:50:06.547Z,100950.59
2018-05-02T18:52:36.386Z,100945.11
2018-05-02T18:55:07.597Z,100947.47
2018-05-02T18:57:35.952Z,100944.08
2018-05-02T19:00:04.224Z,100946.38
2018-05-02T19:02:32.851Z,100945.57
2018-05-02T19:05:01.958Z,100942.37
2018-05-02T19:07:30.232Z,100936.46
2018-05-02T19:09:59.866Z,100940.25
2018-05-02T19:12:28.144Z,100945.33
2018-05-02T19:14:57.199Z,100949.91
2018-05-02T19:17:25.510Z,100948.30
2018-05-02T19:19:59.488Z,100950.83
2018-05-02T19:22:27.783Z,100958.53
2018-05-02T19:25:01.935Z,100955.96
2018-05-02T19:27:30.971Z,100959.77
2018-05-02T19:29:59.254Z,100958.13
2018-05-02T19:32:33.678Z,100965.34
2018-05-02T19:35:02.012Z,100964.98
2018-05-02T19:37:31.075Z,100955.73
2018-05-02T19:40:05.178Z,100966.23
2018-05-02T19:42:38.932Z,100961.66
2018-05-02T19:45:08.086Z,100964.58
2018-05-02T19:47:36.763Z,100967.09
2018-05-02T19:50:05.450Z,100961.22
2018-05-02T19:52:39.263Z,100964.14
2018-05-02T19:55:07.543Z,100958.30
2018-05-02T19:57:36.055Z,100968.31
2018-05-02T20:00:05.111Z,100968.31
2018-05-02T20:02:39.373Z,100967.03
2018-05-02T20:05:08.951Z,100959.53
2018-05-02T20:07:42.674Z,100958.70
2018-05-02T20:10:16.631Z,100956.55
2018-05-02T20:12:51.163Z,100956.16
2018-05-02T20:15:19.679Z,100953.66
2018-05-02T20:17:48.418Z,100956.59
2018-05-02T20:20:17.334Z,100957.42
2018-05-02T20:22:45.723Z,100958.25
2018-05-02T20:25:14.142Z,100960.27
2018-05-02T20:27:42.427Z,100956.09
2018-05-02T20:30:12.161Z,100948.96
2018-05-02T20:32:41.079Z,100950.09
2018-05-02T20:35:10.157Z,100956.23
2018-05-02T20:37:38.823Z,100961.16
2018-05-02T20:40:08.687Z,100958.17
2018-05-02T20:42:37.154Z,100956.38
2018-05-02T20:45:05.419Z,100953.58
2018-05-02T20:47:34.532Z,100953.02
2018-05-02T20:50:02.828Z,100951.68
2018-05-02T20:52:31.300Z,100944.92
2018-05-02T20:55:00.039Z,100950.70
2018-05-02T20:57:29.291Z,100948.55
2018-05-02T20:59:57.619Z,100948.09
2018-05-02T21:02:27.768Z,100945.09
2018-05-02T21:04:56.046Z,100940.91
2018-05-02T21:07:24.899Z,100935.52
2018-05-02T21:09:53.177Z,100944.97
2018-05-02T21:12:22.223Z,100940.38
2018-05-02T21:14:50.923Z,100936.55
2018-05-02T21:17:20.044Z,100937.80
2018-05-02T21:19:48.747Z,100939.34
2018-05-02T21:22:18.732Z,100943.34
2018-05-02T21:24:47.386Z,100940.30
2018-05-02T21:27:16.099Z,100939.70
2018-05-02T21:29:44.569Z,100939.98
2018-05-02T21:32:12.918Z,100935.60
2018-05-02T21:34:41.984Z,100936.55
2018-05-02T21:37:11.302Z,100932.80
2018-05-02T21:39:40.359Z,100934.88
2018-05-02T21:42:09.277Z,100931.13
2018-05-02T21:44:37.578Z,100931.87
2018-05-02T21:47:08.040Z,100928.86
2018-05-02T21:49:36.416Z,100932.59
2018-05-02T21:52:04.687Z,100936.75
2018-05-02T21:54:33.910Z,100942.84
2018-05-02T21:57:02.286Z,100936.19
2018-05-02T21:59:30.575Z,100934.80
2018-05-02T22:01:58.835Z,100931.85
2018-05-02T22:04:29.222Z,100932.16
2018-05-02T22:06:58.254Z,100930.97
2018-05-02T22:09:26.908Z,100933.61
2018-05-02T22:11:56.570Z,100927.56
2018-05-02T22:14:25.250Z,100930.56
2018-05-02T22:16:53.543Z,100923.98
2018-05-02T22:19:22.526Z,100926.86
2018-05-02T22:21:51.191Z,100930.23
2018-05-02T22:24:19.462Z,100935.08
2018-05-02T22:26:47.737Z,100931.27
2018-05-02T22:29:16.647Z,100922.44
2018-05-02T22:31:46.333Z,100924.68
2018-05-02T22:34:14.590Z,100928.81
2018-05-02T22:36:43.734Z,100925.55
2018-05-02T22:39:12.315Z,100925.70
2018-05-02T22:41:41.003Z,100924.45
2018-05-02T22:44:09.903Z,100925.19
2018-05-02T22:46:38.173Z,100924.61
2018-05-02T22:49:06.793Z,100921.94
2018-05-02T22:51:35.148Z,100916.97
2018-05-02T22:54:03.671Z,100914.59
2018-05-02T22:56:32.810Z,100917.52
2018-05-02T22:59:01.228Z,100909.50
2018-05-02T23:01:29.495Z,100918.39
2018-05-02T23:03:57.763Z,100917.55
2018-05-02T23:06:26.539Z,100914.65
2018-05-02T23:08:55.258Z,100902.58
2018-05-02T23:11:24.439Z,100906.00
2018-05-02T23:13:52.728Z,100895.62
2018-05-02T23:16:22.211Z,100894.00
2018-05-02T23:18:50.798Z,100891.22
2018-05-02T23:21:20.339Z,100890.96
2018-05-02T23:23:49.190Z,100890.77
2018-05-02T23:26:18.199Z,100889.94
2018-05-02T23:28:47.329Z,100885.45
2018-05-02T23:31:16.685Z,100883.67
2018-05-02T23:33:45.590Z,100886.58
2018-05-02T23:36:13.904Z,100883.17
2018-05-02T23:38:43.449Z,100886.86
2018-05-02T23:41:11.796Z,100887.23
2018-05-02T23:43:40.031Z,100880.66
2018-05-02T23:46:09.429Z,100880.91
2018-05-02T23:48:38.034Z,100883.58
2018-05-02T23:51:06.748Z,100874.63
2018-05-02T23:53:35.287Z,100870.53
2018-05-02T23:56:03.616Z,100866.44
2018-05-02T23:58:32.645Z,100865.02
